Time;durP1;ratioP1;P1;durP2;ratioP2;P2;SDS_P1;SDS_P2;PMS_P1;PMS_P2;Temp;Humidity;BMP_temperature;BMP_pressure;BME280_temperature;BME280_humidity;BME280_pressure;Samples;Min_cycle;Max_cycle;Signal;HPM_P1;HPM_P2
2023/01/28 00:01:45;;;;;;;10.35;8.90;;;2.10;99.90;;;;;;4985353;28;20046;-77
2023/01/28 00:04:10;;;;;;;10.15;9.15;;;2.00;99.90;;;;;;5012803;28;20050;-78
2023/01/28 00:06:37;;;;;;;9.45;8.40;;;2.00;99.90;;;;;;5007274;28;20119;-78
2023/01/28 00:09:02;;;;;;;10.20;8.90;;;2.00;99.90;;;;;;5012142;28;20496;-78
2023/01/28 00:11:28;;;;;;;9.50;8.48;;;2.00;99.90;;;;;;5014119;28;20054;-78
2023/01/28 00:13:54;;;;;;;10.85;9.63;;;2.00;99.90;;;;;;5008638;28;20038;-78
2023/01/28 00:16:25;;;;;;;11.10;9.90;;;2.00;99.90;;;;;;5012788;28;20053;-78
2023/01/28 00:18:52;;;;;;;10.10;9.13;;;2.00;99.90;;;;;;5010621;28;20042;-78
2023/01/28 00:21:17;;;;;;;9.10;7.50;;;2.00;99.90;;;;;;5012104;28;20042;-79
2023/01/28 00:23:49;;;;;;;10.50;8.90;;;2.00;99.90;;;;;;5008492;28;20034;-79
2023/01/28 00:26:15;;;;;;;10.52;9.43;;;2.00;99.90;;;;;;5005127;28;20120;-79
2023/01/28 00:28:41;;;;;;;9.93;8.90;;;2.00;99.90;;;;;;5006453;28;20129;-78
2023/01/28 00:31:18;;;;;;;10.20;9.20;;;2.00;99.90;;;;;;5006707;28;20050;-78
2023/01/28 00:33:46;;;;;;;6.22;5.63;;;2.00;99.90;;;;;;5005695;28;20371;-78
2023/01/28 00:36:13;;;;;;;9.43;8.43;;;2.00;99.90;;;;;;5002716;28;20038;-78
2023/01/28 00:38:41;;;;;;;10.50;9.50;;;2.00;99.90;;;;;;4992190;28;20046;-78
2023/01/28 00:41:09;;;;;;;;;;;2.10;99.90;;;;;;5007440;28;20116;-78
2023/01/28 00:43:35;;;;;;;10.93;9.82;;;2.10;99.90;;;;;;4995269;28;19988;-79
2023/01/28 00:46:01;;;;;;;10.93;9.82;;;2.10;99.90;;;;;;5008979;28;20498;-79
2023/01/28 00:48:27;;;;;;;11.13;10.00;;;2.10;99.90;;;;;;5008888;28;20121;-78
2023/01/28 00:50:52;;;;;;;11.43;10.32;;;2.10;99.90;;;;;;4991625;28;20081;-79
2023/01/28 00:53:18;;;;;;;12.05;10.35;;;2.10;99.90;;;;;;5009609;28;20044;-79
2023/01/28 00:55:44;;;;;;;11.73;10.60;;;2.10;99.90;;;;;;5008614;28;20041;-78
2023/01/28 00:58:09;;;;;;;11.25;10.18;;;2.10;99.90;;;;;;5007911;28;20046;-79
2023/01/28 01:00:35;;;;;;;13.38;12.00;;;2.10;99.90;;;;;;4992492;28;20034;-79
2023/01/28 01:03:01;;;;;;;41.90;34.33;;;2.10;99.90;;;;;;4990890;28;20165;-79
2023/01/28 01:05:28;;;;;;;34.15;28.25;;;2.10;99.90;;;;;;5008707;28;20030;-79
2023/01/28 01:07:54;;;;;;;16.75;15.15;;;2.10;99.90;;;;;;5010743;28;20516;-79
2023/01/28 01:10:20;;;;;;;12.82;11.52;;;2.10;99.90;;;;;;4975399;28;20061;-79
2023/01/28 01:12:47;;;;;;;13.20;11.80;;;2.10;99.90;;;;;;4996811;28;20038;-78
2023/01/28 01:15:14;;;;;;;21.02;18.92;;;2.10;99.90;;;;;;4995805;28;20038;-78
2023/01/28 01:17:43;;;;;;;30.27;25.30;;;2.10;99.90;;;;;;5010996;28;20054;-78
2023/01/28 01:20:13;;;;;;;21.33;18.70;;;2.10;99.90;;;;;;5009795;28;20493;-78
2023/01/28 01:22:39;;;;;;;16.35;14.80;;;2.00;99.90;;;;;;5011867;28;20125;-78
2023/01/28 01:25:05;;;;;;;20.50;18.30;;;2.00;99.90;;;;;;5010196;28;20062;-79
2023/01/28 01:27:31;;;;;;;24.77;21.48;;;2.10;99.90;;;;;;5009554;28;20046;-80
2023/01/28 01:30:00;;;;;;;19.42;17.38;;;2.00;99.90;;;;;;4992545;28;20408;-79
2023/01/28 01:32:33;;;;;;;15.68;14.07;;;2.10;99.90;;;;;;5010662;28;20180;-79
2023/01/28 01:34:59;;;;;;;13.00;11.68;;;2.00;99.90;;;;;;5010526;28;20049;-79
2023/01/28 01:37:26;;;;;;;12.27;11.07;;;2.00;99.90;;;;;;5006711;28;20378;-79
2023/01/28 01:39:51;;;;;;;12.30;11.02;;;2.00;99.90;;;;;;5004942;28;20046;-79
2023/01/28 01:42:18;;;;;;;12.85;11.55;;;2.00;99.90;;;;;;5007212;28;20038;-80
2023/01/28 01:44:57;;;;;;;12.88;11.68;;;2.00;99.90;;;;;;4995910;28;20043;-79
2023/01/28 01:47:56;;;;;;;12.65;11.45;;;2.00;99.90;;;;;;4989187;28;20058;-80
2023/01/28 01:50:32;;;;;;;12.63;11.48;;;2.00;99.90;;;;;;5002308;28;20057;-80
2023/01/28 01:53:10;;;;;;;13.18;11.88;;;2.00;99.90;;;;;;5000846;28;20052;-80
2023/01/28 01:55:40;;;;;;;13.55;12.35;;;2.00;99.90;;;;;;5000909;28;20057;-80
2023/01/28 01:58:12;;;;;;;15.13;13.60;;;2.00;99.90;;;;;;4982247;28;20323;-80
2023/01/28 02:00:39;;;;;;;12.60;11.43;;;1.90;99.90;;;;;;5000505;28;20057;-80
2023/01/28 02:03:05;;;;;;;11.85;10.77;;;1.90;99.90;;;;;;5005112;28;20519;-80
2023/01/28 02:05:30;;;;;;;13.70;12.50;;;1.90;99.90;;;;;;5004576;28;20050;-80
2023/01/28 02:08:19;;;;;;;12.82;11.73;;;1.90;99.90;;;;;;5002441;28;20042;-80
2023/01/28 02:10:45;;;;;;;11.82;10.75;;;1.90;99.90;;;;;;5009331;28;20095;-80
2023/01/28 02:13:11;;;;;;;12.70;11.60;;;;;;;;;;4997450;28;20057;-80
2023/01/28 02:15:37;;;;;;;11.23;10.13;;;1.90;99.90;;;;;;5013278;28;20187;-80
2023/01/28 02:18:03;;;;;;;11.30;10.40;;;1.90;99.90;;;;;;4992955;28;20181;-80
2023/01/28 02:20:43;;;;;;;11.43;10.32;;;1.80;99.90;;;;;;5012960;28;20030;-80
2023/01/28 02:23:51;;;;;;;11.07;10.18;;;1.80;99.90;;;;;;5010388;28;20222;-80
2023/01/28 02:26:34;;;;;;;10.23;9.32;;;1.80;99.90;;;;;;5008025;28;20049;-80
2023/01/28 02:29:35;;;;;;;7.90;7.30;;;1.70;99.90;;;;;;5006178;28;20120;-80
2023/01/28 02:32:09;;;;;;;8.60;7.90;;;1.80;99.90;;;;;;5009691;28;20038;-80
2023/01/28 02:34:51;;;;;;;9.50;8.70;;;1.80;99.90;;;;;;4990645;28;20041;-80
2023/01/28 02:37:24;;;;;;;9.73;9.02;;;1.70;99.90;;;;;;5008627;28;20074;-80
2023/01/28 02:39:58;;;;;;;9.02;8.32;;;1.80;99.90;;;;;;5010770;28;20053;-80
2023/01/28 02:42:26;;;;;;;9.00;8.30;;;1.70;99.90;;;;;;5010851;28;20080;-80
2023/01/28 02:44:52;;;;;;;7.65;7.05;;;1.70;99.90;;;;;;5006329;28;20109;-80
2023/01/28 02:50:19;;;;;;;8.00;7.40;;;1.70;99.90;;;;;;5000033;28;20062;-79
2023/01/28 02:56:18;;;;;;;7.60;6.90;;;1.70;99.90;;;;;;5000674;28;20050;-80
2023/01/28 03:01:57;;;;;;;;;;;1.70;99.90;;;;;;5012336;28;20053;-80
2023/01/28 03:04:25;;;;;;;8.18;7.57;;;1.70;99.90;;;;;;4989179;28;19922;-80
2023/01/28 03:06:56;;;;;;;7.40;6.80;;;1.70;99.90;;;;;;5008298;28;20126;-80
2023/01/28 03:09:25;;;;;;;6.78;6.07;;;1.60;99.90;;;;;;5009383;28;20081;-81
2023/01/28 03:37:27;;;;;;;8.00;7.38;;;1.50;99.90;;;;;;5006146;28;20051;-80
2023/01/28 03:39:56;;;;;;;7.93;7.32;;;1.50;99.90;;;;;;4990239;28;20043;-80
2023/01/28 03:42:22;;;;;;;7.82;7.32;;;1.50;99.90;;;;;;5017608;28;20072;-80
2023/01/28 03:44:51;;;;;;;7.65;6.97;;;1.50;99.90;;;;;;5014060;28;20046;-81
2023/01/28 03:47:24;;;;;;;8.60;8.00;;;1.50;99.90;;;;;;5011557;28;20054;-80
2023/01/28 03:49:52;;;;;;;8.38;7.68;;;1.40;99.90;;;;;;5012930;28;20046;-80
2023/01/28 03:52:20;;;;;;;8.32;7.63;;;1.40;99.90;;;;;;4999157;28;20474;-80
2023/01/28 03:54:47;;;;;;;7.78;7.18;;;1.50;99.90;;;;;;5012436;28;20354;-80
2023/01/28 03:57:17;;;;;;;7.88;7.18;;;1.40;99.90;;;;;;5007052;28;20045;-80
2023/01/28 03:59:43;;;;;;;7.88;7.25;;;1.50;99.90;;;;;;4996654;28;20113;-80
2023/01/28 04:02:10;;;;;;;8.07;7.18;;;1.50;99.90;;;;;;5007897;28;20403;-80
2023/01/28 04:04:37;;;;;;;8.02;7.32;;;1.50;99.90;;;;;;5005011;28;20092;-80
2023/01/28 04:07:03;;;;;;;7.93;7.22;;;1.50;99.90;;;;;;5012557;28;20042;-80
2023/01/28 04:09:28;;;;;;;8.10;7.28;;;1.50;99.90;;;;;;5009460;28;20115;-80
2023/01/28 04:11:54;;;;;;;7.53;6.93;;;1.50;99.90;;;;;;5011602;28;20113;-80
2023/01/28 04:14:20;;;;;;;7.03;6.43;;;1.50;99.90;;;;;;5006332;28;20073;-80
2023/01/28 04:16:45;;;;;;;7.13;6.53;;;1.50;99.90;;;;;;5008183;28;20073;-80
2023/01/28 04:19:12;;;;;;;7.60;6.90;;;1.40;99.90;;;;;;5009888;28;21169;-80
2023/01/28 04:21:38;;;;;;;7.55;6.68;;;1.50;99.90;;;;;;5005744;28;20054;-78
2023/01/28 04:24:04;;;;;;;7.78;7.07;;;1.40;99.90;;;;;;4993184;28;20323;-79
2023/01/28 04:26:30;;;;;;;7.47;6.85;;;1.50;99.90;;;;;;4996329;28;21759;-79
2023/01/28 04:28:55;;;;;;;7.47;6.72;;;1.40;99.90;;;;;;5008052;28;20049;-80
2023/01/28 04:31:22;;;;;;;7.75;7.05;;;1.40;99.90;;;;;;4992830;28;20622;-80
2023/01/28 04:33:48;;;;;;;8.00;7.22;;;1.50;99.90;;;;;;5006338;28;20042;-79
2023/01/28 04:36:15;;;;;;;7.65;6.85;;;1.40;99.90;;;;;;5013113;28;20042;-80
2023/01/28 04:38:40;;;;;;;7.38;6.78;;;1.40;99.90;;;;;;5017932;28;20132;-80
2023/01/28 04:41:06;;;;;;;8.00;7.20;;;1.50;99.90;;;;;;4994552;28;20471;-79
2023/01/28 04:43:31;;;;;;;8.05;7.00;;;1.50;99.90;;;;;;5010081;28;20042;-79
2023/01/28 04:45:57;;;;;;;8.30;7.60;;;1.50;99.90;;;;;;4990793;28;20038;-80
2023/01/28 04:48:23;;;;;;;8.40;7.60;;;1.40;99.90;;;;;;5012292;28;20066;-80
2023/01/28 04:50:48;;;;;;;9.10;8.30;;;1.50;99.90;;;;;;5010303;28;20473;-80
2023/01/28 04:53:14;;;;;;;9.27;8.43;;;1.50;99.90;;;;;;4993617;28;20049;-80
2023/01/28 04:55:39;;;;;;;9.00;8.10;;;1.50;99.90;;;;;;4996917;28;20052;-81
2023/01/28 04:58:05;;;;;;;8.85;8.15;;;1.50;99.90;;;;;;5011772;28;20459;-81
2023/01/28 05:00:31;;;;;;;8.18;7.47;;;1.50;99.90;;;;;;5015515;28;20492;-80
2023/01/28 05:02:56;;;;;;;8.75;7.95;;;1.50;99.90;;;;;;5011102;28;20500;-78
2023/01/28 05:05:22;;;;;;;8.63;7.88;;;1.50;99.90;;;;;;5008468;28;20053;-78
2023/01/28 05:07:52;;;;;;;9.27;8.35;;;1.50;99.90;;;;;;5006134;28;20030;-78
2023/01/28 05:10:18;;;;;;;9.40;7.93;;;1.50;99.90;;;;;;4977758;28;20062;-80
2023/01/28 05:12:45;;;;;;;8.50;7.80;;;1.50;99.90;;;;;;4990796;28;20161;-80
2023/01/28 05:15:11;;;;;;;8.55;7.85;;;1.50;99.90;;;;;;4990386;28;20136;-79
2023/01/28 05:17:36;;;;;;;9.05;8.25;;;1.50;99.90;;;;;;5005927;28;20419;-78
2023/01/28 05:20:03;;;;;;;8.75;7.95;;;1.50;99.90;;;;;;5004464;28;20768;-79
2023/01/28 05:22:28;;;;;;;9.07;8.27;;;1.50;99.90;;;;;;5006322;28;20125;-80
2023/01/28 05:24:54;;;;;;;9.32;8.40;;;1.50;99.90;;;;;;4985933;28;20180;-79
2023/01/28 05:27:19;;;;;;;10.43;9.43;;;1.50;99.90;;;;;;5003036;28;20073;-79
2023/01/28 05:30:07;;;;;;;9.77;8.75;;;1.50;99.90;;;;;;5002678;28;20507;-79
2023/01/28 05:32:33;;;;;;;9.20;8.40;;;1.50;99.90;;;;;;5003635;28;20042;-80
2023/01/28 05:34:58;;;;;;;9.80;8.95;;;1.50;99.90;;;;;;5005243;28;20049;-79
2023/01/28 05:37:24;;;;;;;10.45;8.80;;;1.50;99.90;;;;;;5008458;28;20452;-80
2023/01/28 05:39:49;;;;;;;10.35;9.15;;;1.50;99.90;;;;;;5007128;28;20179;-80
2023/01/28 05:42:43;;;;;;;10.15;9.15;;;1.50;99.90;;;;;;4986369;28;20489;-81
2023/01/28 05:45:23;;;;;;;10.40;9.07;;;1.50;99.90;;;;;;4993528;28;20049;-80
2023/01/28 05:47:49;;;;;;;9.63;8.73;;;1.50;99.90;;;;;;5008684;28;20038;-80
2023/01/28 05:50:15;;;;;;;9.23;8.40;;;1.50;99.90;;;;;;5009016;28;20049;-80
2023/01/28 05:52:40;;;;;;;9.93;8.95;;;1.50;99.90;;;;;;5016304;28;20034;-80
2023/01/28 05:55:06;;;;;;;9.63;8.73;;;1.50;99.90;;;;;;4997046;28;20045;-80
2023/01/28 05:57:32;;;;;;;9.63;8.82;;;1.50;99.90;;;;;;5010687;28;20053;-80
2023/01/28 05:59:58;;;;;;;10.52;9.52;;;1.50;99.90;;;;;;5011742;28;20045;-80
2023/01/28 06:02:23;;;;;;;10.10;9.10;;;1.50;99.90;;;;;;5007505;28;20049;-80
2023/01/28 06:04:49;;;;;;;10.13;9.23;;;1.50;99.90;;;;;;5009702;28;20042;-80
2023/01/28 06:07:18;;;;;;;10.65;9.55;;;1.50;99.90;;;;;;5007069;28;20042;-80
2023/01/28 06:09:44;;;;;;;10.63;9.52;;;1.50;99.90;;;;;;5014136;28;20057;-80
2023/01/28 06:12:09;;;;;;;10.45;9.45;;;1.50;99.90;;;;;;5013500;28;20042;-80
2023/01/28 06:14:35;;;;;;;10.70;9.60;;;1.50;99.90;;;;;;5006385;28;20057;-80
2023/01/28 06:17:01;;;;;;;10.80;9.70;;;1.50;99.90;;;;;;5007519;28;20098;-80
2023/01/28 06:19:27;;;;;;;11.00;9.90;;;1.50;99.90;;;;;;4989330;28;20050;-79
2023/01/28 06:21:52;;;;;;;11.82;10.35;;;1.50;99.90;;;;;;5015043;28;20052;-79
2023/01/28 06:24:18;;;;;;;12.00;10.85;;;1.40;99.90;;;;;;5010792;28;20306;-79
2023/01/28 06:26:44;;;;;;;12.15;10.95;;;1.50;99.90;;;;;;4984881;28;20041;-80
2023/01/28 06:29:10;;;;;;;12.40;11.20;;;1.50;99.90;;;;;;4988040;28;20049;-80
2023/01/28 06:31:35;;;;;;;12.00;10.80;;;1.40;99.90;;;;;;5004989;28;20049;-79
2023/01/28 06:34:01;;;;;;;11.93;10.73;;;1.50;99.90;;;;;;5001588;28;20042;-77
2023/01/28 06:36:27;;;;;;;12.30;11.07;;;1.50;99.90;;;;;;4985373;28;20096;-77
2023/01/28 06:38:52;;;;;;;12.80;11.50;;;1.50;99.90;;;;;;5000675;28;20050;-77
2023/01/28 06:41:18;;;;;;;11.95;10.75;;;1.50;99.90;;;;;;5005944;28;20037;-77
2023/01/28 06:43:43;;;;;;;12.13;10.68;;;1.50;99.90;;;;;;4998325;28;20412;-77
2023/01/28 06:46:09;;;;;;;13.63;11.48;;;1.50;99.90;;;;;;4999901;28;20125;-78
2023/01/28 06:48:35;;;;;;;13.82;11.52;;;1.50;99.90;;;;;;4980966;28;20066;-78
2023/01/28 06:51:00;;;;;;;12.25;11.05;;;1.50;99.90;;;;;;4998972;28;20847;-78
2023/01/28 06:53:26;;;;;;;13.10;11.88;;;1.40;99.90;;;;;;4985089;28;20504;-78
2023/01/28 06:55:52;;;;;;;12.27;10.98;;;1.40;99.90;;;;;;4998349;28;20058;-78
2023/01/28 06:58:17;;;;;;;13.23;11.82;;;1.40;99.90;;;;;;5001210;28;20053;-78
2023/01/28 07:00:43;;;;;;;14.15;12.75;;;1.40;99.90;;;;;;5002076;28;20072;-78
2023/01/28 07:03:08;;;;;;;13.73;12.32;;;1.40;99.90;;;;;;5000268;28;20154;-78
2023/01/28 07:05:34;;;;;;;14.73;12.98;;;1.40;99.90;;;;;;5002549;28;20124;-78
2023/01/28 07:08:01;;;;;;;13.93;12.40;;;1.40;99.90;;;;;;5002435;28;20048;-78
2023/01/28 07:10:27;;;;;;;14.23;12.57;;;1.40;99.90;;;;;;5009611;28;20053;-78
2023/01/28 07:12:52;;;;;;;14.68;12.88;;;1.40;99.90;;;;;;4999232;28;20065;-78
2023/01/28 07:15:18;;;;;;;13.68;12.27;;;1.40;99.90;;;;;;5002903;28;20481;-78
2023/01/28 07:17:44;;;;;;;13.98;12.57;;;1.40;99.90;;;;;;4984232;28;20125;-79
2023/01/28 07:20:12;;;;;;;14.15;12.40;;;1.50;99.90;;;;;;4996240;28;20132;-80
2023/01/28 07:22:40;;;;;;;15.88;13.18;;;1.50;99.90;;;;;;5005430;28;20129;-81
2023/01/28 07:25:07;;;;;;;14.93;13.32;;;1.50;99.90;;;;;;5012076;28;20105;-80
2023/01/28 07:27:33;;;;;;;15.90;14.20;;;1.50;99.90;;;;;;5007010;28;20107;-79
2023/01/28 07:29:58;;;;;;;15.38;13.88;;;1.50;99.90;;;;;;5009472;28;20401;-79
2023/01/28 07:32:26;;;;;;;15.02;13.45;;;1.50;99.90;;;;;;4996199;28;20038;-79
2023/01/28 07:34:52;;;;;;;13.98;12.55;;;1.50;99.90;;;;;;4994454;28;20462;-79
2023/01/28 07:37:18;;;;;;;14.10;12.40;;;1.50;99.90;;;;;;4991727;28;20081;-79
2023/01/28 07:39:43;;;;;;;14.32;12.88;;;1.50;99.90;;;;;;4976490;28;20426;-77
2023/01/28 07:42:09;;;;;;;13.60;12.23;;;1.50;99.90;;;;;;5013508;28;20099;-77
2023/01/28 07:44:36;;;;;;;13.73;12.20;;;1.50;99.90;;;;;;5012841;28;20098;-78
2023/01/28 07:47:02;;;;;;;13.88;12.48;;;1.50;99.90;;;;;;4997984;28;20051;-78
2023/01/28 07:49:28;;;;;;;13.70;12.30;;;1.50;99.90;;;;;;4998120;28;20039;-79
2023/01/28 07:51:54;;;;;;;14.90;13.35;;;1.60;99.90;;;;;;4995863;28;20050;-79
2023/01/28 07:54:19;;;;;;;13.00;11.73;;;1.60;99.90;;;;;;4998808;28;20050;-79
2023/01/28 07:56:45;;;;;;;14.10;12.55;;;1.60;99.90;;;;;;4999634;28;20039;-79
2023/01/28 07:59:11;;;;;;;14.30;12.80;;;1.60;99.90;;;;;;4999027;28;20046;-79
2023/01/28 08:01:36;;;;;;;13.52;12.13;;;1.60;99.90;;;;;;4997112;28;20125;-79
2023/01/28 08:04:02;;;;;;;13.25;11.73;;;1.60;99.90;;;;;;5005932;28;20042;-79
2023/01/28 08:06:28;;;;;;;18.20;13.68;;;1.60;99.90;;;;;;4996582;28;20468;-78
2023/01/28 08:08:54;;;;;;;15.13;12.60;;;1.70;99.90;;;;;;4989547;28;20488;-79
2023/01/28 08:11:20;;;;;;;13.85;12.45;;;1.70;99.90;;;;;;4989377;28;20176;-77
2023/01/28 08:13:45;;;;;;;14.90;13.40;;;1.70;99.90;;;;;;4993401;28;20052;-78
2023/01/28 08:16:11;;;;;;;14.68;13.18;;;1.80;99.90;;;;;;4983523;28;20085;-78
2023/01/28 08:18:37;;;;;;;15.02;13.38;;;1.80;99.90;;;;;;5008626;28;20052;-78
2023/01/28 08:21:04;;;;;;;14.75;12.90;;;1.80;99.90;;;;;;4988562;28;20046;-75
2023/01/28 08:23:33;;;;;;;13.45;12.10;;;1.80;99.90;;;;;;4989366;28;20112;-76
2023/01/28 08:25:59;;;;;;;12.82;11.57;;;1.80;99.90;;;;;;5004942;28;20077;-78
2023/01/28 08:28:25;;;;;;;13.98;12.55;;;1.80;99.90;;;;;;5003925;28;20038;-76
2023/01/28 08:30:52;;;;;;;13.90;12.15;;;1.70;99.90;;;;;;5005390;28;20103;-76
2023/01/28 08:33:18;;;;;;;14.07;12.57;;;1.70;99.90;;;;;;4983327;28;20112;-77
2023/01/28 08:35:45;;;;;;;13.10;11.80;;;1.80;99.90;;;;;;5000067;28;20044;-77
2023/01/28 08:38:16;;;;;;;13.27;11.93;;;1.70;99.90;;;;;;4979993;28;20060;-75
2023/01/28 08:40:42;;;;;;;13.05;11.75;;;1.70;99.90;;;;;;5003879;28;20042;-75
2023/01/28 08:43:07;;;;;;;12.68;11.48;;;1.60;99.90;;;;;;5006483;28;20045;-77
2023/01/28 08:45:33;;;;;;;12.10;10.90;;;1.60;99.90;;;;;;5003678;28;20473;-77
2023/01/28 08:48:02;;;;;;;12.63;11.32;;;1.50;99.90;;;;;;4992126;28;20046;-78
2023/01/28 08:50:31;;;;;;;12.50;11.30;;;1.50;99.90;;;;;;4989863;28;20499;-77
2023/01/28 08:53:00;;;;;;;12.75;11.40;;;1.40;99.90;;;;;;5011577;28;20042;-76
2023/01/28 08:55:26;;;;;;;14.10;12.73;;;1.30;99.90;;;;;;4989208;28;20437;-76
2023/01/28 08:57:52;;;;;;;13.63;12.32;;;1.50;99.90;;;;;;4990938;28;20125;-76
2023/01/28 09:00:19;;;;;;;15.32;13.82;;;1.60;99.90;;;;;;5013416;28;20077;-76
2023/01/28 09:02:45;;;;;;;14.50;13.00;;;1.70;99.90;;;;;;5012839;28;20049;-77
2023/01/28 09:05:11;;;;;;;14.45;12.95;;;1.80;99.90;;;;;;5003713;28;20050;-77
2023/01/28 09:07:38;;;;;;;13.48;12.18;;;1.70;99.90;;;;;;5012374;28;20104;-77
2023/01/28 09:10:04;;;;;;;14.18;12.68;;;1.70;99.90;;;;;;4957651;28;20058;-77
2023/01/28 09:12:30;;;;;;;14.40;12.98;;;1.80;99.90;;;;;;4955029;28;20062;-77
2023/01/28 09:14:56;;;;;;;14.07;12.73;;;1.80;99.90;;;;;;4983245;28;20050;-76
2023/01/28 09:17:22;;;;;;;14.13;12.63;;;1.90;99.90;;;;;;4975028;28;20047;-77
2023/01/28 09:19:48;;;;;;;14.15;12.75;;;1.90;99.90;;;;;;4974172;28;20150;-76
2023/01/28 09:22:14;;;;;;;13.75;12.45;;;1.90;99.90;;;;;;4972948;28;20387;-76
2023/01/28 09:24:40;;;;;;;13.63;12.30;;;2.00;99.90;;;;;;4964638;28;20054;-76
2023/01/28 09:27:06;;;;;;;14.65;12.82;;;2.00;99.90;;;;;;4967482;28;20039;-76
2023/01/28 09:29:35;;;;;;;15.07;13.48;;;2.10;99.90;;;;;;4971333;28;20062;-76
2023/01/28 09:32:00;;;;;;;15.10;13.60;;;2.20;99.90;;;;;;4968895;28;20046;-76
2023/01/28 09:34:28;;;;;;;15.60;13.45;;;2.20;99.90;;;;;;4965590;28;20043;-76
2023/01/28 09:36:53;;;;;;;15.18;13.05;;;2.20;99.90;;;;;;4967886;28;20051;-76
2023/01/28 09:39:19;;;;;;;14.95;13.38;;;2.30;99.90;;;;;;4967360;28;20047;-76
2023/01/28 09:42:11;;;;;;;15.00;12.90;;;2.40;99.90;;;;;;4950543;28;20134;-77
2023/01/28 09:44:53;;;;;;;14.88;13.27;;;2.40;99.90;;;;;;4967256;28;20094;-76
2023/01/28 09:47:28;;;;;;;15.05;13.27;;;2.50;99.90;;;;;;4965662;28;20051;-76
2023/01/28 09:49:57;;;;;;;14.32;12.82;;;2.70;99.90;;;;;;4973400;28;20046;-75
2023/01/28 09:52:24;;;;;;;15.85;13.07;;;2.80;99.90;;;;;;4966133;28;20038;-76
2023/01/28 09:55:04;;;;;;;14.60;13.10;;;2.90;99.90;;;;;;4968388;28;20509;-77
2023/01/28 09:57:46;;;;;;;13.63;12.32;;;3.00;99.90;;;;;;4957314;28;20098;-77
2023/01/28 10:00:18;;;;;;;14.50;13.00;;;3.10;99.90;;;;;;4972362;28;20051;-77
2023/01/28 10:02:47;;;;;;;14.50;13.07;;;3.30;99.90;;;;;;4972398;28;20515;-77
2023/01/28 10:05:15;;;;;;;14.40;12.95;;;3.30;99.90;;;;;;4966085;28;20093;-77
2023/01/28 10:08:02;;;;;;;13.93;12.52;;;3.40;99.90;;;;;;4974220;28;20070;-77
2023/01/28 10:10:38;;;;;;;14.88;12.85;;;3.50;99.90;;;;;;5005761;28;20563;-77
2023/01/28 10:13:30;;;;;;;15.40;13.80;;;3.60;99.90;;;;;;5014976;28;20042;-77
2023/01/28 10:16:11;;;;;;;14.88;13.38;;;3.60;99.90;;;;;;4964286;28;20052;-77
2023/01/28 10:18:42;;;;;;;14.43;13.00;;;3.60;99.90;;;;;;4996054;28;20072;-77
2023/01/28 10:21:20;;;;;;;13.70;12.35;;;3.60;99.90;;;;;;4981071;28;20046;-77
2023/01/28 10:23:57;;;;;;;14.55;13.05;;;3.70;99.90;;;;;;4996279;28;20074;-77
2023/01/28 10:26:30;;;;;;;16.80;13.35;;;3.70;99.90;;;;;;5012871;28;20042;-77
2023/01/28 10:29:02;;;;;;;14.43;13.02;;;3.60;99.90;;;;;;5013816;28;20124;-77
2023/01/28 10:31:34;;;;;;;14.00;12.63;;;3.60;99.90;;;;;;5013227;28;20124;-77
2023/01/28 10:34:00;;;;;;;15.30;13.75;;;3.70;99.90;;;;;;4993902;28;20141;-77
2023/01/28 10:36:26;;;;;;;15.93;14.07;;;3.60;99.90;;;;;;4988725;28;20077;-77
2023/01/28 10:38:52;;;;;;;16.13;14.52;;;3.60;99.90;;;;;;4976387;28;20524;-77
2023/01/28 10:41:21;;;;;;;17.30;14.65;;;3.70;99.90;;;;;;5006094;28;20060;-77
2023/01/28 10:43:48;;;;;;;15.82;14.25;;;3.70;99.90;;;;;;5012743;28;20052;-77
2023/01/28 10:46:19;;;;;;;14.48;13.07;;;3.80;99.90;;;;;;5013184;28;20144;-77
2023/01/28 10:49:04;;;;;;;14.02;12.63;;;4.00;99.90;;;;;;5013240;28;20050;-77
2023/01/28 10:51:31;;;;;;;13.52;12.13;;;4.00;99.90;;;;;;5013476;28;20085;-77
2023/01/28 10:53:57;;;;;;;13.55;12.15;;;4.10;99.90;;;;;;5002287;28;20042;-77
2023/01/28 10:56:26;;;;;;;14.02;12.63;;;4.10;99.90;;;;;;4988897;28;20042;-77
2023/01/28 10:59:00;;;;;;;13.82;12.43;;;4.10;99.90;;;;;;4994677;28;20053;-77
2023/01/28 11:01:42;;;;;;;13.20;11.90;;;4.30;99.90;;;;;;4994703;28;20041;-77
2023/01/28 11:04:16;;;;;;;12.60;11.40;;;4.20;99.90;;;;;;5013112;28;20571;-77
2023/01/28 11:07:01;;;;;;;11.75;10.55;;;4.20;99.90;;;;;;5010650;28;20092;-77
2023/01/28 11:09:32;;;;;;;11.98;10.77;;;4.30;99.90;;;;;;4988263;28;20133;-77
2023/01/28 11:12:09;;;;;;;11.70;10.43;;;4.30;99.90;;;;;;4985258;28;20089;-77
2023/01/28 11:14:34;;;;;;;12.43;10.83;;;4.30;99.90;;;;;;5004542;28;20489;-77
2023/01/28 11:17:00;;;;;;;11.15;10.15;;;4.30;99.90;;;;;;5005822;28;20081;-77
2023/01/28 11:19:33;;;;;;;11.38;10.25;;;4.40;99.90;;;;;;5005041;28;20452;-77
2023/01/28 11:21:59;;;;;;;12.23;10.93;;;4.40;99.90;;;;;;5010423;28;20052;-77
2023/01/28 11:24:30;;;;;;;11.35;10.25;;;4.40;99.90;;;;;;5004799;28;20042;-77
2023/01/28 11:26:58;;;;;;;10.80;9.70;;;4.50;99.90;;;;;;5008736;28;20527;-77
2023/01/28 11:29:30;;;;;;;10.82;9.73;;;4.60;99.90;;;;;;4993147;28;20069;-77
2023/01/28 11:31:57;;;;;;;10.93;9.77;;;4.70;99.90;;;;;;4988292;28;20133;-77
2023/01/28 11:34:29;;;;;;;10.90;9.80;;;4.70;99.90;;;;;;4990488;28;20077;-77
2023/01/28 11:37:15;;;;;;;10.43;9.43;;;4.80;99.90;;;;;;5007893;28;20468;-77
2023/01/28 11:39:41;;;;;;;10.98;9.88;;;4.90;99.90;;;;;;4990055;28;20049;-77
2023/01/28 11:42:11;;;;;;;11.52;10.07;;;5.00;99.90;;;;;;5008212;28;20125;-77
2023/01/28 11:44:38;;;;;;;10.73;9.63;;;5.20;99.90;;;;;;5006105;28;20142;-77
2023/01/28 11:47:15;;;;;;;10.43;9.43;;;5.30;99.90;;;;;;5005510;28;20061;-77
2023/01/28 11:49:54;;;;;;;9.88;8.95;;;5.20;99.90;;;;;;4990242;28;20064;-77
2023/01/28 11:52:25;;;;;;;9.13;8.23;;;5.20;99.90;;;;;;5007316;28;20042;-77
2023/01/28 11:55:24;;;;;;;8.52;7.72;;;5.10;99.90;;;;;;4988757;28;20100;-77
2023/01/28 11:57:55;;;;;;;8.98;8.07;;;5.00;99.90;;;;;;4938461;29;20532;-77
2023/01/28 12:00:26;;;;;;;9.75;8.15;;;4.90;99.90;;;;;;4938741;29;20134;-78
2023/01/28 12:03:21;;;;;;;8.82;8.02;;;4.90;99.90;;;;;;4929673;29;20047;-78
2023/01/28 12:05:51;;;;;;;9.40;8.40;;;4.80;99.90;;;;;;4918786;29;20048;-76
2023/01/28 12:08:53;;;;;;;8.95;8.05;;;4.70;99.90;;;;;;4929610;29;20048;-77
2023/01/28 12:11:18;;;;;;;10.30;8.00;;;4.60;99.90;;;;;;4889820;29;20443;-76
2023/01/28 12:14:11;;;;;;;9.32;8.43;;;4.50;99.90;;;;;;4889909;29;20132;-77
2023/01/28 12:17:05;;;;;;;9.43;8.25;;;4.50;99.90;;;;;;4897942;29;20052;-77
2023/01/28 12:19:58;;;;;;;9.57;7.55;;;4.70;99.90;;;;;;4898155;29;20063;-77
2023/01/28 12:22:48;;;;;;;8.80;7.75;;;5.00;99.90;;;;;;4895598;29;20048;-77
2023/01/28 12:25:26;;;;;;;9.82;7.82;;;5.20;99.90;;;;;;4895475;29;20127;-77
2023/01/28 12:27:57;;;;;;;;;;;5.60;99.90;;;;;;4895231;29;20048;-77
2023/01/28 12:30:50;;;;;;;8.52;7.70;;;5.70;99.90;;;;;;4880312;29;19946;-77
2023/01/28 12:33:34;;;;;;;7.72;6.93;;;5.90;99.90;;;;;;4907192;29;20052;-77
2023/01/28 12:36:30;;;;;;;9.52;7.70;;;6.20;99.90;;;;;;4935714;29;20142;-77
2023/01/28 12:39:17;;;;;;;7.95;7.05;;;6.40;99.90;;;;;;4934621;29;20498;-77
2023/01/28 12:41:50;;;;;;;8.45;7.60;;;6.70;99.90;;;;;;4917016;29;20055;-77
2023/01/28 12:44:33;;;;;;;7.28;6.57;;;6.70;99.90;;;;;;4917015;29;20071;-77
2023/01/28 12:47:14;;;;;;;8.07;7.38;;;6.70;99.90;;;;;;4958348;28;20058;-77
2023/01/28 12:49:55;;;;;;;9.32;7.60;;;6.60;99.90;;;;;;5005822;28;20145;-77
2023/01/28 12:52:27;;;;;;;7.35;6.60;;;6.50;99.90;;;;;;5008570;28;20050;-77
2023/01/28 12:55:14;;;;;;;8.32;7.53;;;6.40;99.90;;;;;;4995841;28;20065;-77
2023/01/28 12:57:40;;;;;;;7.53;6.82;;;6.30;99.90;;;;;;4962109;28;20065;-77
2023/01/28 13:00:34;;;;;;;6.85;6.15;;;6.30;99.90;;;;;;4996559;28;20047;-77
2023/01/28 13:03:15;;;;;;;6.40;5.80;;;6.10;99.90;;;;;;5011975;28;20054;-77
2023/01/28 13:05:47;;;;;;;7.85;6.82;;;6.10;99.90;;;;;;4988061;28;20119;-77
2023/01/28 13:08:26;;;;;;;7.22;6.50;;;6.10;99.90;;;;;;5015284;28;20042;-77
2023/01/28 13:10:55;;;;;;;6.22;5.57;;;6.00;99.90;;;;;;5012850;28;21012;-77
2023/01/28 13:13:30;;;;;;;6.65;6.00;;;5.90;99.90;;;;;;5015192;28;20046;-77
2023/01/28 13:15:56;;;;;;;6.10;5.50;;;5.80;99.90;;;;;;5015067;28;20052;-77
2023/01/28 13:18:39;;;;;;;6.60;5.90;;;5.70;99.90;;;;;;5014233;28;20045;-77
2023/01/28 13:21:06;;;;;;;7.10;6.18;;;5.50;99.90;;;;;;4977547;28;20065;-77
2023/01/28 13:23:38;;;;;;;7.80;6.82;;;5.20;99.90;;;;;;5014549;28;20526;-77
2023/01/28 13:26:19;;;;;;;8.43;7.22;;;5.20;99.90;;;;;;4977442;28;20133;-77
2023/01/28 13:28:50;;;;;;;7.97;7.05;;;5.20;99.90;;;;;;4995366;28;20049;-77
2023/01/28 13:31:18;;;;;;;9.32;8.07;;;5.20;99.90;;;;;;4995130;28;20042;-77
2023/01/28 13:33:53;;;;;;;;;;;5.30;99.90;;;;;;4992857;28;20503;-77
2023/01/28 13:36:28;;;;;;;9.05;7.80;;;5.20;99.90;;;;;;5014746;28;19964;-77